Time;durP1;ratioP1;P1;durP2;ratioP2;P2;SDS_P1;SDS_P2;PMS_P1;PMS_P2;Temp;Humidity;BMP_temperature;BMP_pressure;BME280_temperature;BME280_humidity;BME280_pressure;Samples;Min_cycle;Max_cycle;Signal;HPM_P1;HPM_P2
2022/07/26 00:02:50;;;;;;;;;;;;;;;21.37;88.97;100022.38;10585683;28;19924;-65
2022/07/26 00:08:09;;;;;;;;;;;;;;;21.29;88.23;100013.22;10585138;28;19924;-66
2022/07/26 00:13:16;;;;;;;;;;;;;;;21.27;88.75;100004.53;10585172;28;20349;-67
2022/07/26 00:18:20;;;;;;;;;;;;;;;21.27;88.98;99989.53;10584854;28;20022;-67
2022/07/26 00:23:23;;;;;;;;;;;;;;;21.18;89.14;99981.31;10585374;28;20393;-70
2022/07/26 00:28:28;;;;;;;;;;;;;;;21.17;90.14;99971.69;10584688;28;19923;-67
2022/07/26 00:33:31;;;;;;;;;;;;;;;21.23;90.15;99981.88;10584520;28;19931;-68
2022/07/26 00:38:34;;;;;;;;;;;;;;;21.19;90.37;99967.19;10584511;28;20337;-67
2022/07/26 00:43:52;;;;;;;;;;;;;;;21.13;90.37;99971.03;10584249;28;20023;-69
2022/07/26 00:48:55;;;;;;;;;;;;;;;21.09;91.05;99973.97;10584203;28;19976;-69
2022/07/26 00:53:58;;;;;;;;;;;;;;;21.00;91.56;99963.94;10590673;28;20241;-66
2022/07/26 00:59:03;;;;;;;;;;;;;;;20.96;91.67;99963.22;10592822;28;20358;-74
2022/07/26 01:04:06;;;;;;;;;;;;;;;20.94;92.14;99980.06;10591851;28;19927;-71
2022/07/26 01:09:11;;;;;;;;;;;;;;;20.96;91.86;99968.50;10591986;28;19959;-68
2022/07/26 01:14:19;;;;;;;;;;;;;;;20.76;93.02;99960.06;10591647;28;20343;-67
2022/07/26 01:19:22;;;;;;;;;;;;;;;20.87;92.86;99947.06;10591663;28;20345;-68
2022/07/26 01:24:27;;;;;;;;;;;;;;;20.74;94.19;99946.97;10591131;28;19923;-69
2022/07/26 01:29:30;;;;;;;;;;;;;;;20.77;93.73;99946.78;10591088;28;19930;-68
2022/07/26 01:34:38;;;;;;;;;;;;;;;20.53;95.92;99949.06;10590857;28;20282;-69
2022/07/26 01:39:44;;;;;;;;;;;;;;;20.67;95.75;99946.44;10590106;28;19924;-66
2022/07/26 01:44:47;;;;;;;;;;;;;;;20.66;95.41;99950.03;10590121;28;19923;-68
2022/07/26 01:49:50;;;;;;;;;;;;;;;20.67;96.21;99950.88;10590631;28;20214;-67
2022/07/26 01:54:54;;;;;;;;;;;;;;;20.58;95.42;99944.34;10590220;28;19924;-65
2022/07/26 01:59:57;;;;;;;;;;;;;;;20.51;94.15;99944.78;10589928;28;19934;-68
2022/07/26 02:05:00;;;;;;;;;;;;;;;20.52;94.03;99955.25;10588695;28;19984;-67
2022/07/26 02:10:05;;;;;;;;;;;;;;;20.57;93.49;99950.56;10589313;28;19930;-67
2022/07/26 02:15:09;;;;;;;;;;;;;;;20.50;92.69;99927.28;10589079;28;19954;-68
2022/07/26 02:20:15;;;;;;;;;;;;;;;20.44;93.01;99923.19;10588850;28;19923;-67
2022/07/26 02:25:20;;;;;;;;;;;;;;;20.43;93.12;99925.94;10584626;28;19923;-66
2022/07/26 02:30:23;;;;;;;;;;;;;;;20.44;92.90;99920.56;10583268;28;19939;-67
2022/07/26 02:35:26;;;;;;;;;;;;;;;20.38;93.80;99923.53;10581925;28;20541;-67
2022/07/26 02:40:31;;;;;;;;;;;;;;;20.38;94.72;99923.53;10581545;28;19927;-66
2022/07/26 02:45:34;;;;;;;;;;;;;;;20.30;95.60;99901.19;10582248;28;19928;-64
2022/07/26 02:50:37;;;;;;;;;;;;;;;20.22;97.96;99899.00;10581626;28;19924;-66
2022/07/26 02:55:41;;;;;;;;;;;;;;;20.27;99.18;99902.22;10244892;27;10000288;-66
2022/07/26 03:00:44;;;;;;;;;;;;;;;20.30;98.34;99880.97;10624462;27;19940;-64
2022/07/26 03:05:47;;;;;;;;;;;;;;;20.25;98.32;99887.41;10623755;27;19957;-66
2022/07/26 03:10:51;;;;;;;;;;;;;;;20.18;98.80;99871.13;10623746;27;19923;-64
2022/07/26 03:15:54;;;;;;;;;;;;;;;20.26;97.76;99871.50;10609831;27;20241;-67
2022/07/26 03:20:57;;;;;;;;;;;;;;;20.29;96.81;99892.44;10580533;28;20318;-64
2022/07/26 03:26:03;;;;;;;;;;;;;;;20.22;97.22;99880.56;10580051;28;20083;-64
2022/07/26 03:31:06;;;;;;;;;;;;;;;20.25;97.24;99869.81;10580661;28;19928;-66
2022/07/26 03:36:10;;;;;;;;;;;;;;;20.20;97.75;99874.50;10580471;28;19938;-68
2022/07/26 03:41:18;;;;;;;;;;;;;;;20.25;97.75;99880.38;10579837;28;19934;-64
2022/07/26 03:46:21;;;;;;;;;;;;;;;20.40;97.14;99887.41;10579171;28;20272;-65
2022/07/26 03:51:40;;;;;;;;;;;;;;;20.35;97.40;99875.41;10545992;28;21102;-66
2022/07/26 03:56:45;;;;;;;;;;;;;;;20.34;97.95;99864.03;10579636;28;19928;-67
2022/07/26 04:01:48;;;;;;;;;;;;;;;20.36;97.86;99853.41;10578981;28;19927;-64
2022/07/26 04:06:52;;;;;;;;;;;;;;;20.35;98.61;99851.69;10579758;28;19935;-67
2022/07/26 04:11:56;;;;;;;;;;;;;;;20.36;100.00;99851.59;10582292;28;19988;-70
2022/07/26 04:16:59;;;;;;;;;;;;;;;20.45;100.00;99844.94;10585126;28;19936;-68
2022/07/26 04:22:02;;;;;;;;;;;;;;;20.60;99.20;99833.50;10584509;28;19930;-69
2022/07/26 04:27:07;;;;;;;;;;;;;;;20.61;98.58;99817.59;10588195;28;20275;-66
2022/07/26 04:32:10;;;;;;;;;;;;;;;20.69;98.93;99815.31;10593387;28;19923;-68
2022/07/26 04:37:13;;;;;;;;;;;;;;;20.75;99.47;99827.31;10593002;28;19924;-68
2022/07/26 04:42:18;;;;;;;;;;;;;;;20.82;97.55;99833.91;10593104;28;19923;-68
2022/07/26 04:47:21;;;;;;;;;;;;;;;20.71;96.59;99830.22;10592627;28;19924;-68
2022/07/26 04:52:23;;;;;;;;;;;;;;;20.74;96.72;99835.31;10592636;28;19928;-68
2022/07/26 04:57:28;;;;;;;;;;;;;;;20.82;96.14;99814.59;10592182;28;19924;-66
2022/07/26 05:02:31;;;;;;;;;;;;;;;20.83;95.10;99826.84;10589076;28;20023;-65
2022/07/26 05:07:39;;;;;;;;;;;;;;;20.84;95.21;99832.03;10586627;28;19924;-66
2022/07/26 05:12:44;;;;;;;;;;;;;;;20.89;94.61;99829.09;10585752;28;19923;-62
2022/07/26 05:17:47;;;;;;;;;;;;;;;20.92;93.62;99827.13;10585291;28;19935;-67
2022/07/26 05:22:50;;;;;;;;;;;;;;;21.00;93.34;99822.25;10586378;28;19924;-64
2022/07/26 05:27:54;;;;;;;;;;;;;;;21.02;93.31;99817.75;10585072;28;19930;-67
2022/07/26 05:32:57;;;;;;;;;;;;;;;21.15;93.49;99810.78;10584601;28;20336;-68
2022/07/26 05:38:00;;;;;;;;;;;;;;;21.23;92.73;99802.38;10583736;28;19924;-66
2022/07/26 05:43:05;;;;;;;;;;;;;;;21.30;92.70;99793.97;10226688;27;10000340;-68
2022/07/26 05:48:08;;;;;;;;;;;;;;;21.34;92.71;99786.72;10584063;28;19938;-68
2022/07/26 05:53:11;;;;;;;;;;;;;;;21.37;92.29;99783.88;10583505;28;19923;-68
2022/07/26 05:58:15;;;;;;;;;;;;;;;21.33;91.86;99792.94;10584720;28;19928;-67
2022/07/26 06:03:24;;;;;;;;;;;;;;;21.30;91.79;99801.91;10583168;28;19927;-68
2022/07/26 06:08:27;;;;;;;;;;;;;;;21.39;92.37;99795.19;10583614;28;19931;-67
2022/07/26 06:13:32;;;;;;;;;;;;;;;21.44;92.80;99798.38;10583697;28;19938;-68
2022/07/26 06:18:35;;;;;;;;;;;;;;;21.56;92.43;99782.59;10582967;28;19927;-65
2022/07/26 06:23:38;;;;;;;;;;;;;;;21.70;92.60;99779.06;10582445;28;20301;-66
2022/07/26 06:28:42;;;;;;;;;;;;;;;21.81;92.33;99779.28;10582727;28;19931;-65
2022/07/26 06:33:45;;;;;;;;;;;;;;;21.98;92.56;99768.44;10582255;28;19927;-66
2022/07/26 06:38:48;;;;;;;;;;;;;;;22.13;93.55;99770.06;10583354;27;19928;-67
2022/07/26 06:43:53;;;;;;;;;;;;;;;22.27;92.49;99763.84;10602377;27;19934;-67
2022/07/26 06:48:56;;;;;;;;;;;;;;;22.37;91.55;99756.97;10582611;28;19934;-66
2022/07/26 06:53:59;;;;;;;;;;;;;;;22.48;91.04;99754.47;10581153;28;19927;-69
2022/07/26 06:59:04;;;;;;;;;;;;;;;22.68;90.86;99749.53;10584147;28;20269;-66
2022/07/26 07:04:11;;;;;;;;;;;;;;;22.88;90.70;99737.56;10587339;28;19923;-65
2022/07/26 07:09:14;;;;;;;;;;;;;;;23.06;88.84;99727.44;10586966;28;19927;-67
2022/07/26 07:14:19;;;;;;;;;;;;;;;23.22;87.36;99738.63;10586449;28;19924;-72
2022/07/26 07:19:22;;;;;;;;;;;;;;;23.28;84.03;99762.91;10587073;28;19923;-70
2022/07/26 07:24:25;;;;;;;;;;;;;;;23.34;83.00;99756.34;10587011;28;19931;-67
2022/07/26 07:29:29;;;;;;;;;;;;;;;23.43;82.04;99755.69;10586221;28;19923;-68
2022/07/26 07:34:32;;;;;;;;;;;;;;;23.55;81.67;99779.50;10585604;28;19923;-68
2022/07/26 07:39:35;;;;;;;;;;;;;;;23.70;79.98;99766.91;10585871;28;19934;-71
2022/07/26 07:44:41;;;;;;;;;;;;;;;23.81;78.77;99746.63;10585426;28;20015;-65
2022/07/26 07:49:44;;;;;;;;;;;;;;;23.93;78.96;99764.28;10585467;28;19924;-68
2022/07/26 07:54:47;;;;;;;;;;;;;;;24.08;79.51;99737.59;10584804;28;20272;-66
2022/07/26 07:59:52;;;;;;;;;;;;;;;24.23;79.73;99747.88;10584814;28;19942;-68
2022/07/26 08:04:55;;;;;;;;;;;;;;;24.41;79.28;99740.34;10584607;28;19928;-65
2022/07/26 08:10:13;;;;;;;;;;;;;;;24.49;79.50;99740.63;10584924;28;20291;-68
2022/07/26 08:15:17;;;;;;;;;;;;;;;24.53;79.68;99750.00;10584950;28;19924;-67
2022/07/26 08:20:21;;;;;;;;;;;;;;;24.61;79.16;99748.44;10579287;28;20356;-64
2022/07/26 08:25:26;;;;;;;;;;;;;;;24.67;79.85;99750.66;10226708;27;10000154;-68
2022/07/26 08:30:31;;;;;;;;;;;;;;;24.80;79.90;99745.25;10578808;28;20324;-68
2022/07/26 08:35:34;;;;;;;;;;;;;;;24.96;79.78;99743.06;10578158;28;19938;-66
2022/07/26 08:40:37;;;;;;;;;;;;;;;25.14;79.20;99731.84;10578673;28;19924;-66
2022/07/26 08:45:44;;;;;;;;;;;;;;;25.33;79.49;99739.19;10583163;28;19934;-65
2022/07/26 08:50:47;;;;;;;;;;;;;;;25.49;77.62;99731.69;10583912;28;19930;-64
2022/07/26 08:55:55;;;;;;;;;;;;;;;25.58;77.84;99730.94;10583724;28;19923;-62
2022/07/26 09:01:11;;;;;;;;;;;;;;;25.70;77.21;99735.25;10583981;28;20260;-65
2022/07/26 09:06:16;;;;;;;;;;;;;;;25.77;76.25;99741.75;10583753;28;20003;-64
2022/07/26 09:11:26;;;;;;;;;;;;;;;25.81;75.84;99748.53;10583981;28;19923;-66
2022/07/26 09:16:31;;;;;;;;;;;;;;;25.86;75.98;99743.66;10591240;28;19931;-64
2022/07/26 09:21:40;;;;;;;;;;;;;;;26.04;73.90;99746.66;10591084;28;19924;-66
2022/07/26 09:26:54;;;;;;;;;;;;;;;26.13;74.13;99764.50;10584869;27;19938;-65
2022/07/26 09:32:18;;;;;;;;;;;;;;;26.25;72.01;99766.13;10589186;28;20424;-68
2022/07/26 09:37:34;;;;;;;;;;;;;;;26.44;70.62;99770.78;10585747;28;19950;-68
2022/07/26 09:42:38;;;;;;;;;;;;;;;26.65;70.04;99766.25;10586193;28;20345;-65
2022/07/26 09:47:42;;;;;;;;;;;;;;;26.92;68.01;99767.41;10589723;28;19934;-68
2022/07/26 09:53:02;;;;;;;;;;;;;;;26.99;67.58;99773.91;10590542;28;19924;-65
2022/07/26 09:58:05;;;;;;;;;;;;;;;27.03;68.00;99772.66;10589529;28;19924;-67
2022/07/26 10:03:09;;;;;;;;;;;;;;;27.70;66.78;99775.56;10589701;28;20345;-68
2022/07/26 10:08:13;;;;;;;;;;;;;;;28.84;63.24;99771.19;10588772;28;19985;-69
2022/07/26 10:13:16;;;;;;;;;;;;;;;31.65;53.82;99769.28;10589118;28;19934;-67
2022/07/26 10:18:37;;;;;;;;;;;;;;;28.85;61.07;99779.09;10588436;28;19934;-66
2022/07/26 10:23:44;;;;;;;;;;;;;;;31.38;53.10;99769.53;10587819;28;20018;-67
2022/07/26 10:28:47;;;;;;;;;;;;;;;31.75;52.14;99779.88;10583648;28;19927;-67
2022/07/26 10:33:51;;;;;;;;;;;;;;;30.06;57.06;99784.09;10582731;28;19928;-68
2022/07/26 10:38:59;;;;;;;;;;;;;;;30.00;57.72;99789.22;10581850;27;20284;-68
2022/07/26 10:44:22;;;;;;;;;;;;;;;29.56;59.35;99785.56;10581530;28;20268;-67
2022/07/26 10:49:30;;;;;;;;;;;;;;;29.27;60.28;99795.53;10581473;28;19942;-68
2022/07/26 10:54:54;;;;;;;;;;;;;;;28.80;62.15;99797.41;10582104;28;20552;-68
2022/07/26 10:59:57;;;;;;;;;;;;;;;28.82;63.15;99794.56;10580913;28;19928;-65
2022/07/26 11:05:01;;;;;;;;;;;;;;;28.61;63.50;99813.47;10580636;28;19923;-67
2022/07/26 11:10:06;;;;;;;;;;;;;;;28.26;63.91;99818.50;10581171;28;19932;-72
2022/07/26 11:15:15;;;;;;;;;;;;;;;28.09;64.34;99827.19;10580842;28;20502;-68
2022/07/26 11:20:24;;;;;;;;;;;;;;;28.57;62.29;99825.41;10580781;28;19928;-68
2022/07/26 11:25:33;;;;;;;;;;;;;;;28.91;60.81;99839.97;10580975;28;19927;-70
2022/07/26 11:30:36;;;;;;;;;;;;;;;28.57;60.61;99848.59;10579880;28;19924;-68
2022/07/26 11:35:49;;;;;;;;;;;;;;;28.47;60.58;99858.41;10585225;27;19962;-69
2022/07/26 11:40:54;;;;;;;;;;;;;;;27.98;62.03;99872.69;10578800;28;19928;-66
2022/07/26 11:45:57;;;;;;;;;;;;;;;27.17;63.79;99878.91;10580156;28;19935;-71
2022/07/26 11:51:08;;;;;;;;;;;;;;;26.78;65.62;99884.13;10579207;28;19934;-69
2022/07/26 11:56:16;;;;;;;;;;;;;;;26.81;64.84;99886.53;10578811;28;19934;-67
2022/07/26 12:01:20;;;;;;;;;;;;;;;26.44;65.62;99887.91;10538835;28;19970;-71
2022/07/26 12:06:24;;;;;;;;;;;;;;;26.40;65.50;99894.44;10543480;28;19972;-69
2022/07/26 12:11:38;;;;;;;;;;;;;;;25.89;65.57;99894.16;10542401;28;19935;-69
2022/07/26 12:16:43;;;;;;;;;;;;;;;25.49;66.92;99906.28;10544581;28;19924;-67
2022/07/26 12:21:47;;;;;;;;;;;;;;;25.19;68.38;99920.13;10584733;28;20040;-69
2022/07/26 12:27:04;;;;;;;;;;;;;;;25.14;68.74;99912.47;10584577;28;20255;-68
2022/07/26 12:32:09;;;;;;;;;;;;;;;25.04;72.23;99906.19;10584456;28;20014;-69
2022/07/26 12:37:16;;;;;;;;;;;;;;;24.45;78.23;99922.25;10584265;28;19938;-69
2022/07/26 12:42:27;;;;;;;;;;;;;;;24.24;81.63;99921.16;10584297;28;19924;-69
2022/07/26 12:47:37;;;;;;;;;;;;;;;24.03;85.04;99947.44;10586799;28;19928;-71
2022/07/26 12:52:40;;;;;;;;;;;;;;;23.92;87.98;99945.50;10592453;28;20344;-73
2022/07/26 12:57:45;;;;;;;;;;;;;;;23.77;89.07;99943.97;10592433;28;19963;-71
2022/07/26 13:02:50;;;;;;;;;;;;;;;23.66;89.97;99927.97;10592160;28;19930;-70
2022/07/26 13:07:53;;;;;;;;;;;;;;;23.50;92.02;99951.22;10591443;28;19924;-71
2022/07/26 13:12:57;;;;;;;;;;;;;;;23.02;100.00;99964.25;10592108;28;19924;-73
2022/07/26 13:18:00;;;;;;;;;;;;;;;22.62;100.00;99982.75;10591015;28;19930;-71
2022/07/26 13:23:03;;;;;;;;;;;;;;;22.45;100.00;99964.47;10591281;28;19924;-68
2022/07/26 13:28:08;;;;;;;;;;;;;;;22.30;100.00;99989.25;10590708;28;20213;-70
2022/07/26 13:33:11;;;;;;;;;;;;;;;22.26;100.00;99997.50;10590706;28;19935;-71
2022/07/26 13:38:17;;;;;;;;;;;;;;;22.24;100.00;100016.13;10590198;28;19924;-70
2022/07/26 13:43:22;;;;;;;;;;;;;;;22.20;100.00;100024.31;10590180;28;19923;-68
2022/07/26 13:48:25;;;;;;;;;;;;;;;22.25;100.00;100016.94;10589965;28;19953;-72
2022/07/26 13:53:29;;;;;;;;;;;;;;;22.22;100.00;100004.78;10589848;28;19934;-70
2022/07/26 13:58:33;;;;;;;;;;;;;;;22.30;100.00;100007.78;10588719;28;19946;-73
2022/07/26 14:03:36;;;;;;;;;;;;;;;22.34;100.00;100000.50;10589242;28;20008;-73
2022/07/26 14:08:39;;;;;;;;;;;;;;;22.36;100.00;100003.91;10588771;28;19923;-72
2022/07/26 14:13:43;;;;;;;;;;;;;;;22.29;100.00;100008.75;10589216;28;20029;-69
2022/07/26 14:18:46;;;;;;;;;;;;;;;22.35;100.00;100008.34;10588561;28;19932;-69
2022/07/26 14:23:49;;;;;;;;;;;;;;;22.33;100.00;100009.41;10588361;28;19928;-71
2022/07/26 14:28:54;;;;;;;;;;;;;;;22.24;100.00;100009.97;10587568;28;20015;-64
2022/07/26 14:33:57;;;;;;;;;;;;;;;22.18;100.00;100015.63;10588141;28;19924;-64
2022/07/26 14:39:00;;;;;;;;;;;;;;;22.24;100.00;100025.84;10587351;28;20328;-67
2022/07/26 14:44:07;;;;;;;;;;;;;;;22.23;100.00;100018.84;10587906;28;19935;-66
2022/07/26 14:49:10;;;;;;;;;;;;;;;22.28;100.00;100020.25;10587097;28;19924;-69
2022/07/26 14:54:14;;;;;;;;;;;;;;;22.32;100.00;100024.41;10586864;28;19932;-67
2022/07/26 14:59:18;;;;;;;;;;;;;;;22.29;100.00;100029.03;10586775;28;19932;-66
2022/07/26 15:04:21;;;;;;;;;;;;;;;22.33;100.00;100043.78;10587678;28;19931;-67
2022/07/26 15:09:24;;;;;;;;;;;;;;;22.21;100.00;100053.31;10586056;28;19923;-66
2022/07/26 15:14:28;;;;;;;;;;;;;;;22.26;100.00;100059.16;10586376;28;19923;-65
2022/07/26 15:19:31;;;;;;;;;;;;;;;22.26;100.00;100058.31;10585873;28;19949;-67
2022/07/26 15:24:37;;;;;;;;;;;;;;;22.32;100.00;100048.19;10586512;28;20229;-66
2022/07/26 15:29:43;;;;;;;;;;;;;;;22.29;100.00;100036.97;10585703;28;19924;-66
2022/07/26 15:34:46;;;;;;;;;;;;;;;22.21;100.00;100042.72;10582417;28;19927;-68
2022/07/26 15:39:53;;;;;;;;;;;;;;;22.24;100.00;100058.44;10579984;28;19928;-67
2022/07/26 15:44:57;;;;;;;;;;;;;;;22.13;100.00;100068.81;10579983;28;19924;-69
2022/07/26 15:50:01;;;;;;;;;;;;;;;21.96;100.00;100066.34;10225321;27;10000288;-68
2022/07/26 15:55:05;;;;;;;;;;;;;;;21.91;100.00;100072.88;10578974;28;20267;-69
2022/07/26 16:00:10;;;;;;;;;;;;;;;21.81;100.00;100077.88;10579541;28;19928;-69
2022/07/26 16:05:14;;;;;;;;;;;;;;;21.83;100.00;100078.59;10578128;28;19938;-70
2022/07/26 16:10:17;;;;;;;;;;;;;;;21.83;100.00;100091.00;10578595;28;20001;-69
2022/07/26 16:15:21;;;;;;;;;;;;;;;21.77;100.00;100093.06;10579028;28;19931;-68
2022/07/26 16:20:24;;;;;;;;;;;;;;;21.79;100.00;100108.81;10578565;28;20413;-69
2022/07/26 16:25:27;;;;;;;;;;;;;;;21.81;100.00;100114.00;10586284;28;19928;-70
2022/07/26 16:30:32;;;;;;;;;;;;;;;21.82;100.00;100118.34;10587749;28;20352;-69
2022/07/26 16:35:35;;;;;;;;;;;;;;;21.75;100.00;100120.47;10587901;28;19924;-68
2022/07/26 16:40:38;;;;;;;;;;;;;;;21.65;100.00;100127.25;10586565;28;19938;-68
2022/07/26 16:45:42;;;;;;;;;;;;;;;21.46;100.00;100138.03;10586715;28;19932;-69
2022/07/26 16:50:45;;;;;;;;;;;;;;;21.32;100.00;100142.41;10628255;27;20363;-70
2022/07/26 16:55:50;;;;;;;;;;;;;;;21.21;100.00;100143.00;10628828;27;19933;-70
2022/07/26 17:00:55;;;;;;;;;;;;;;;21.33;100.00;100139.66;10582870;28;19935;-69
2022/07/26 17:06:00;;;;;;;;;;;;;;;21.32;100.00;100155.59;10585559;28;19927;-67
2022/07/26 17:11:08;;;;;;;;;;;;;;;21.33;100.00;100142.31;10568693;28;19962;-70
2022/07/26 17:16:12;;;;;;;;;;;;;;;21.33;100.00;100133.56;10543121;28;19924;-71
2022/07/26 17:21:15;;;;;;;;;;;;;;;21.24;100.00;100142.00;10563397;28;19977;-70
2022/07/26 17:26:19;;;;;;;;;;;;;;;21.28;100.00;100139.09;10585043;28;19927;-71
2022/07/26 17:31:23;;;;;;;;;;;;;;;21.32;100.00;100127.44;10583845;28;19927;-70
2022/07/26 17:36:28;;;;;;;;;;;;;;;21.30;100.00;100125.78;10584486;28;19924;-69
2022/07/26 17:41:31;;;;;;;;;;;;;;;21.22;100.00;100128.03;10584916;28;20264;-70
2022/07/26 17:46:36;;;;;;;;;;;;;;;21.21;100.00;100115.78;10584700;27;19949;-70
2022/07/26 17:51:40;;;;;;;;;;;;;;;21.10;100.00;100120.81;10626328;27;19923;-66
2022/07/26 17:56:43;;;;;;;;;;;;;;;21.09;100.00;100113.84;10626197;27;20026;-66
2022/07/26 18:01:47;;;;;;;;;;;;;;;21.11;100.00;100109.31;10557798;27;20368;-66
2022/07/26 18:06:55;;;;;;;;;;;;;;;21.16;100.00;100104.59;10543684;28;19980;-67
2022/07/26 18:11:58;;;;;;;;;;;;;;;21.13;100.00;100110.06;10583286;28;19934;-67
2022/07/26 18:17:03;;;;;;;;;;;;;;;21.08;100.00;100106.84;10545214;28;19985;-68
2022/07/26 18:22:07;;;;;;;;;;;;;;;21.04;100.00;100107.94;10544150;28;19928;-69
2022/07/26 18:27:10;;;;;;;;;;;;;;;21.02;100.00;100107.22;10540035;28;20426;-68
2022/07/26 18:32:14;;;;;;;;;;;;;;;20.96;100.00;100108.38;10540757;28;20043;-66
2022/07/26 18:37:18;;;;;;;;;;;;;;;20.98;100.00;100111.81;10566462;28;19969;-66
2022/07/26 18:42:20;;;;;;;;;;;;;;;21.06;100.00;100112.22;10561754;28;19932;-68
2022/07/26 18:47:25;;;;;;;;;;;;;;;21.11;100.00;100109.31;10539304;28;19928;-66
2022/07/26 18:52:28;;;;;;;;;;;;;;;21.09;100.00;100114.69;10540577;28;20019;-65
2022/07/26 18:57:35;;;;;;;;;;;;;;;20.97;100.00;100114.50;10539101;28;20428;-66
2022/07/26 19:02:39;;;;;;;;;;;;;;;20.97;100.00;100115.34;10569182;28;19927;-67
2022/07/26 19:07:42;;;;;;;;;;;;;;;20.89;100.00;100120.22;10579155;28;19923;-66
2022/07/26 19:12:47;;;;;;;;;;;;;;;21.02;100.00;100121.25;10580707;28;19927;-68
2022/07/26 19:17:51;;;;;;;;;;;;;;;21.04;100.00;100119.38;10580889;28;19928;-69
2022/07/26 19:22:54;;;;;;;;;;;;;;;21.06;100.00;100121.91;10581005;28;20273;-69
2022/07/26 19:27:57;;;;;;;;;;;;;;;21.04;100.00;100119.38;10580491;28;19928;-69
2022/07/26 19:33:01;;;;;;;;;;;;;;;20.99;100.00;100113.50;10580054;28;19927;-70
2022/07/26 19:38:04;;;;;;;;;;;;;;;20.98;100.00;100113.56;10580720;28;19931;-68
2022/07/26 19:43:07;;;;;;;;;;;;;;;20.89;100.00;100112.28;10580199;28;19935;-69
2022/07/26 19:48:12;;;;;;;;;;;;;;;20.82;100.00;100112.72;10579759;28;19930;-67
2022/07/26 19:53:17;;;;;;;;;;;;;;;20.79;100.00;100119.03;10579267;28;19954;-69
2022/07/26 19:58:20;;;;;;;;;;;;;;;20.88;100.00;100101.81;10579814;28;20356;-70
2022/07/26 20:03:30;;;;;;;;;;;;;;;20.77;100.00;100096.28;10619887;27;19984;-70
2022/07/26 20:08:33;;;;;;;;;;;;;;;20.73;100.00;100107.94;10621225;27;19928;-72
2022/07/26 20:13:36;;;;;;;;;;;;;;;20.65;100.00;100106.59;10621987;27;19933;-68
2022/07/26 20:18:40;;;;;;;;;;;;;;;20.63;100.00;100118.16;10621704;27;19923;-70
2022/07/26 20:23:43;;;;;;;;;;;;;;;20.65;100.00;100117.16;10621395;28;19933;-69
2022/07/26 20:28:46;;;;;;;;;;;;;;;20.68;100.00;100110.84;10620878;28;19937;-67
2022/07/26 20:33:53;;;;;;;;;;;;;;;20.64;100.00;100115.44;10621952;28;19923;-69
2022/07/26 20:38:56;;;;;;;;;;;;;;;20.58;100.00;100115.78;10620842;28;19923;-69
2022/07/26 20:43:59;;;;;;;;;;;;;;;20.52;100.00;100118.75;10621425;28;19927;-68
2022/07/26 20:49:03;;;;;;;;;;;;;;;20.54;100.00;100127.44;10595073;28;19950;-70
2022/07/26 20:54:07;;;;;;;;;;;;;;;20.53;100.00;100123.09;10578222;28;20363;-72
2022/07/26 20:59:10;;;;;;;;;;;;;;;20.51;100.00;100130.25;10578017;28;20345;-69
2022/07/26 21:04:15;;;;;;;;;;;;;;;20.60;100.00;100132.34;10577803;28;19927;-70
2022/07/26 21:09:18;;;;;;;;;;;;;;;20.51;100.00;100138.16;10582050;28;19923;-68
2022/07/26 21:14:23;;;;;;;;;;;;;;;20.56;100.00;100130.84;10585879;28;19939;-71
2022/07/26 21:19:28;;;;;;;;;;;;;;;20.55;100.00;100131.75;10585487;28;19980;-69
2022/07/26 21:24:31;;;;;;;;;;;;;;;20.60;100.00;100137.63;10586659;28;19977;-68
2022/07/26 21:29:34;;;;;;;;;;;;;;;20.59;100.00;100137.72;10585971;28;20036;-68
2022/07/26 21:34:42;;;;;;;;;;;;;;;20.59;100.00;100138.56;10585094;28;19952;-69
2022/07/26 21:39:45;;;;;;;;;;;;;;;20.56;100.00;100137.88;10585085;28;20386;-70
2022/07/26 21:44:48;;;;;;;;;;;;;;;20.49;100.00;100144.44;10584925;28;19942;-69
2022/07/26 21:49:53;;;;;;;;;;;;;;;20.53;100.00;100144.19;10617756;27;19927;-68
2022/07/26 21:54:56;;;;;;;;;;;;;;;20.63;100.00;100133.97;10604570;27;20483;-69
2022/07/26 21:59:59;;;;;;;;;;;;;;;20.48;100.00;100148.00;10584716;28;19924;-68
2022/07/26 22:05:33;;;;;;;;;;;;;;;20.51;100.00;100139.94;10583867;28;20259;-70
2022/07/26 22:10:26;;;;;;;;;;;;;;;20.57;100.00;100143.06;10584184;28;20644;-69
2022/07/26 22:15:29;;;;;;;;;;;;;;;20.56;100.00;100143.16;10584232;28;19943;-71
2022/07/26 22:20:34;;;;;;;;;;;;;;;20.50;100.00;100151.41;10582146;28;20423;-70
2022/07/26 22:25:38;;;;;;;;;;;;;;;20.35;100.00;100155.72;10583198;28;20050;-69
2022/07/26 22:30:41;;;;;;;;;;;;;;;20.37;100.00;100153.00;10582707;28;20253;-69
2022/07/26 22:35:45;;;;;;;;;;;;;;;20.36;100.00;100156.56;10583509;28;19931;-67
2022/07/26 22:40:48;;;;;;;;;;;;;;;20.38;100.00;100152.91;10582235;28;19928;-69
2022/07/26 22:45:51;;;;;;;;;;;;;;;20.06;100.00;100155.50;10582048;28;20264;-69
2022/07/26 22:50:56;;;;;;;;;;;;;;;20.14;100.00;100151.53;10582703;28;19946;-70
2022/07/26 22:55:59;;;;;;;;;;;;;;;20.19;100.00;100153.97;10582378;28;20476;-71
2022/07/26 23:01:02;;;;;;;;;;;;;;;20.18;100.00;100152.25;10605880;27;19927;-68
2022/07/26 23:06:06;;;;;;;;;;;;;;;19.98;100.00;100152.44;10624006;27;19927;-72
2022/07/26 23:11:31;;;;;;;;;;;;;;;19.91;100.00;100149.25;10624072;27;19933;-71
2022/07/26 23:16:34;;;;;;;;;;;;;;;19.84;100.00;100155.78;10623657;27;19948;-69
2022/07/26 23:21:39;;;;;;;;;;;;;;;19.85;100.00;100167.13;10623054;27;19945;-68
2022/07/26 23:26:42;;;;;;;;;;;;;;;19.81;100.00;100171.72;10623624;27;19927;-66
2022/07/26 23:31:45;;;;;;;;;;;;;;;20.02;100.00;100175.88;10622731;27;19927;-69
2022/07/26 23:36:49;;;;;;;;;;;;;;;20.16;100.00;100176.06;10622648;27;20256;-67
2022/07/26 23:41:52;;;;;;;;;;;;;;;20.13;100.00;100176.19;10623470;27;19927;-70
2022/07/26 23:46:55;;;;;;;;;;;;;;;20.16;100.00;100170.78;10613698;27;20370;-67
2022/07/26 23:52:00;;;;;;;;;;;;;;;20.09;100.00;100166.75;10579582;28;19927;-66
2022/07/26 23:57:03;;;;;;;;;;;;;;;20.04;100.00;100176.66;10579686;28;20050;-66
